sensor_id;sensor_type;location;lat;lon;timestamp;P1;durP1;ratioP1;P2;durP2;ratioP2
22614;SDS011;11474;50.790;0.298;2022-11-12T00:01:24;13.83;;;5.73;;
22614;SDS011;11474;50.790;0.298;2022-11-12T00:03:50;14.50;;;5.63;;
22614;SDS011;11474;50.790;0.298;2022-11-12T00:06:16;13.23;;;5.50;;
22614;SDS011;11474;50.790;0.298;2022-11-12T00:08:42;14.10;;;6.22;;
22614;SDS011;11474;50.790;0.298;2022-11-12T00:11:08;15.30;;;5.68;;
22614;SDS011;11474;50.790;0.298;2022-11-12T00:13:34;18.85;;;7.07;;
22614;SDS011;11474;50.790;0.298;2022-11-12T00:16:01;18.73;;;6.80;;
22614;SDS011;11474;50.790;0.298;2022-11-12T00:18:29;18.83;;;6.05;;
22614;SDS011;11474;50.790;0.298;2022-11-12T00:20:56;15.75;;;5.75;;
22614;SDS011;11474;50.790;0.298;2022-11-12T00:23:22;16.92;;;6.22;;
22614;SDS011;11474;50.790;0.298;2022-11-12T00:25:56;15.35;;;6.03;;
22614;SDS011;11474;50.790;0.298;2022-11-12T00:28:23;15.57;;;6.07;;
22614;SDS011;11474;50.790;0.298;2022-11-12T00:30:49;12.02;;;5.97;;
22614;SDS011;11474;50.790;0.298;2022-11-12T00:33:15;16.88;;;5.55;;
22614;SDS011;11474;50.790;0.298;2022-11-12T00:35:41;21.00;;;6.28;;
22614;SDS011;11474;50.790;0.298;2022-11-12T00:38:07;14.52;;;6.28;;
22614;SDS011;11474;50.790;0.298;2022-11-12T00:40:33;14.23;;;5.30;;
22614;SDS011;11474;50.790;0.298;2022-11-12T00:42:59;14.98;;;5.50;;
22614;SDS011;11474;50.790;0.298;2022-11-12T00:45:25;20.53;;;5.70;;
22614;SDS011;11474;50.790;0.298;2022-11-12T00:47:54;14.25;;;5.57;;
22614;SDS011;11474;50.790;0.298;2022-11-12T00:50:21;15.77;;;5.90;;
22614;SDS011;11474;50.790;0.298;2022-11-12T00:52:47;17.60;;;5.43;;
22614;SDS011;11474;50.790;0.298;2022-11-12T00:55:13;18.10;;;5.95;;
22614;SDS011;11474;50.790;0.298;2022-11-12T00:57:39;18.05;;;5.70;;
22614;SDS011;11474;50.790;0.298;2022-11-12T01:00:05;15.23;;;5.65;;
22614;SDS011;11474;50.790;0.298;2022-11-12T01:02:31;12.68;;;5.35;;
22614;SDS011;11474;50.790;0.298;2022-11-12T01:04:57;15.95;;;5.70;;
22614;SDS011;11474;50.790;0.298;2022-11-12T01:07:24;15.82;;;5.90;;
22614;SDS011;11474;50.790;0.298;2022-11-12T01:09:50;14.57;;;5.72;;
22614;SDS011;11474;50.790;0.298;2022-11-12T01:12:16;11.77;;;5.28;;
22614;SDS011;11474;50.790;0.298;2022-11-12T01:14:42;17.83;;;5.68;;
22614;SDS011;11474;50.790;0.298;2022-11-12T01:17:08;15.65;;;5.65;;
22614;SDS011;11474;50.790;0.298;2022-11-12T01:19:34;12.63;;;5.78;;
22614;SDS011;11474;50.790;0.298;2022-11-12T01:22:00;19.15;;;5.80;;
22614;SDS011;11474;50.790;0.298;2022-11-12T01:24:26;18.08;;;6.25;;
22614;SDS011;11474;50.790;0.298;2022-11-12T01:26:52;20.30;;;5.60;;
22614;SDS011;11474;50.790;0.298;2022-11-12T01:29:18;12.65;;;5.88;;
22614;SDS011;11474;50.790;0.298;2022-11-12T01:31:44;15.00;;;6.15;;
22614;SDS011;11474;50.790;0.298;2022-11-12T01:34:10;14.98;;;5.88;;
22614;SDS011;11474;50.790;0.298;2022-11-12T01:36:37;14.93;;;5.63;;
22614;SDS011;11474;50.790;0.298;2022-11-12T01:39:04;15.98;;;5.82;;
22614;SDS011;11474;50.790;0.298;2022-11-12T01:41:31;20.20;;;6.32;;
22614;SDS011;11474;50.790;0.298;2022-11-12T01:44:12;18.45;;;6.00;;
22614;SDS011;11474;50.790;0.298;2022-11-12T01:46:58;19.10;;;6.03;;
22614;SDS011;11474;50.790;0.298;2022-11-12T01:49:26;16.90;;;6.22;;
22614;SDS011;11474;50.790;0.298;2022-11-12T01:51:53;16.05;;;6.20;;
22614;SDS011;11474;50.790;0.298;2022-11-12T01:54:20;14.65;;;6.10;;
22614;SDS011;11474;50.790;0.298;2022-11-12T01:56:47;14.93;;;5.95;;
22614;SDS011;11474;50.790;0.298;2022-11-12T01:59:16;16.90;;;5.97;;
22614;SDS011;11474;50.790;0.298;2022-11-12T02:01:43;17.37;;;6.13;;
22614;SDS011;11474;50.790;0.298;2022-11-12T02:04:09;13.63;;;5.70;;
22614;SDS011;11474;50.790;0.298;2022-11-12T02:06:35;18.00;;;6.47;;
22614;SDS011;11474;50.790;0.298;2022-11-12T02:09:02;21.00;;;6.60;;
22614;SDS011;11474;50.790;0.298;2022-11-12T02:11:28;17.50;;;6.90;;
22614;SDS011;11474;50.790;0.298;2022-11-12T02:13:54;21.90;;;6.40;;
22614;SDS011;11474;50.790;0.298;2022-11-12T02:16:31;18.08;;;6.57;;
22614;SDS011;11474;50.790;0.298;2022-11-12T02:18:58;21.17;;;6.78;;
22614;SDS011;11474;50.790;0.298;2022-11-12T02:21:25;19.20;;;6.15;;
22614;SDS011;11474;50.790;0.298;2022-11-12T02:23:57;20.45;;;5.65;;
22614;SDS011;11474;50.790;0.298;2022-11-12T02:26:24;16.48;;;6.28;;
22614;SDS011;11474;50.790;0.298;2022-11-12T02:28:50;15.32;;;6.15;;
22614;SDS011;11474;50.790;0.298;2022-11-12T02:31:16;14.47;;;6.20;;
22614;SDS011;11474;50.790;0.298;2022-11-12T02:33:43;15.95;;;6.45;;
22614;SDS011;11474;50.790;0.298;2022-11-12T02:36:09;14.95;;;6.28;;
22614;SDS011;11474;50.790;0.298;2022-11-12T02:38:35;19.08;;;6.45;;
22614;SDS011;11474;50.790;0.298;2022-11-12T02:41:01;15.80;;;6.88;;
22614;SDS011;11474;50.790;0.298;2022-11-12T02:43:27;14.73;;;5.82;;
22614;SDS011;11474;50.790;0.298;2022-11-12T02:45:53;20.35;;;7.35;;
22614;SDS011;11474;50.790;0.298;2022-11-12T02:48:19;18.77;;;7.03;;
22614;SDS011;11474;50.790;0.298;2022-11-12T02:50:46;15.55;;;6.57;;
22614;SDS011;11474;50.790;0.298;2022-11-12T02:53:12;18.23;;;7.25;;
22614;SDS011;11474;50.790;0.298;2022-11-12T02:55:38;15.98;;;6.25;;
22614;SDS011;11474;50.790;0.298;2022-11-12T02:58:04;18.10;;;6.93;;
22614;SDS011;11474;50.790;0.298;2022-11-12T03:00:30;14.20;;;6.53;;
22614;SDS011;11474;50.790;0.298;2022-11-12T03:02:56;15.73;;;6.68;;
22614;SDS011;11474;50.790;0.298;2022-11-12T03:05:23;18.60;;;6.65;;
22614;SDS011;11474;50.790;0.298;2022-11-12T03:07:49;14.98;;;7.22;;
22614;SDS011;11474;50.790;0.298;2022-11-12T03:10:15;17.65;;;7.07;;
22614;SDS011;11474;50.790;0.298;2022-11-12T03:12:41;14.00;;;6.57;;
22614;SDS011;11474;50.790;0.298;2022-11-12T03:15:07;14.82;;;6.78;;
22614;SDS011;11474;50.790;0.298;2022-11-12T03:17:33;17.92;;;6.97;;
22614;SDS011;11474;50.790;0.298;2022-11-12T03:20:00;16.80;;;6.80;;
22614;SDS011;11474;50.790;0.298;2022-11-12T03:22:26;16.55;;;6.88;;
22614;SDS011;11474;50.790;0.298;2022-11-12T03:24:52;13.75;;;6.30;;
22614;SDS011;11474;50.790;0.298;2022-11-12T03:27:18;19.48;;;6.97;;
22614;SDS011;11474;50.790;0.298;2022-11-12T03:29:44;16.23;;;6.20;;
22614;SDS011;11474;50.790;0.298;2022-11-12T03:32:10;20.38;;;6.80;;
22614;SDS011;11474;50.790;0.298;2022-11-12T03:34:36;16.08;;;6.18;;
22614;SDS011;11474;50.790;0.298;2022-11-12T03:37:02;13.63;;;6.30;;
22614;SDS011;11474;50.790;0.298;2022-11-12T03:39:28;18.55;;;7.40;;
22614;SDS011;11474;50.790;0.298;2022-11-12T03:41:54;12.02;;;5.15;;
22614;SDS011;11474;50.790;0.298;2022-11-12T03:44:20;15.18;;;6.32;;
22614;SDS011;11474;50.790;0.298;2022-11-12T03:46:46;5.83;;;3.50;;
22614;SDS011;11474;50.790;0.298;2022-11-12T03:49:12;13.38;;;5.43;;
22614;SDS011;11474;50.790;0.298;2022-11-12T03:51:38;11.18;;;5.20;;
22614;SDS011;11474;50.790;0.298;2022-11-12T03:54:04;10.70;;;4.80;;
22614;SDS011;11474;50.790;0.298;2022-11-12T03:56:30;14.82;;;6.70;;
22614;SDS011;11474;50.790;0.298;2022-11-12T03:58:56;32.10;;;4.97;;
22614;SDS011;11474;50.790;0.298;2022-11-12T04:01:22;29.25;;;4.18;;
22614;SDS011;11474;50.790;0.298;2022-11-12T04:03:48;27.35;;;4.20;;
22614;SDS011;11474;50.790;0.298;2022-11-12T04:06:14;8.65;;;3.95;;
22614;SDS011;11474;50.790;0.298;2022-11-12T04:08:59;36.13;;;5.10;;
22614;SDS011;11474;50.790;0.298;2022-11-12T04:11:25;19.08;;;6.70;;
22614;SDS011;11474;50.790;0.298;2022-11-12T04:13:51;14.65;;;5.97;;
22614;SDS011;11474;50.790;0.298;2022-11-12T04:16:18;15.68;;;7.57;;
22614;SDS011;11474;50.790;0.298;2022-11-12T04:19:04;17.60;;;7.53;;
22614;SDS011;11474;50.790;0.298;2022-11-12T04:21:50;16.05;;;7.55;;
22614;SDS011;11474;50.790;0.298;2022-11-12T04:27:08;14.40;;;7.50;;
22614;SDS011;11474;50.790;0.298;2022-11-12T04:29:35;12.07;;;4.70;;
22614;SDS011;11474;50.790;0.298;2022-11-12T04:32:20;28.25;;;5.70;;
22614;SDS011;11474;50.790;0.298;2022-11-12T04:34:46;28.95;;;5.15;;
22614;SDS011;11474;50.790;0.298;2022-11-12T04:37:12;33.20;;;5.78;;
22614;SDS011;11474;50.790;0.298;2022-11-12T04:39:38;16.50;;;6.18;;
22614;SDS011;11474;50.790;0.298;2022-11-12T04:42:04;11.85;;;6.03;;
22614;SDS011;11474;50.790;0.298;2022-11-12T04:44:48;12.23;;;6.28;;
22614;SDS011;11474;50.790;0.298;2022-11-12T04:47:25;11.52;;;6.00;;
22614;SDS011;11474;50.790;0.298;2022-11-12T04:49:51;10.68;;;5.13;;
22614;SDS011;11474;50.790;0.298;2022-11-12T04:52:17;12.77;;;5.33;;
22614;SDS011;11474;50.790;0.298;2022-11-12T04:54:43;8.00;;;4.60;;
22614;SDS011;11474;50.790;0.298;2022-11-12T04:57:09;9.77;;;5.22;;
22614;SDS011;11474;50.790;0.298;2022-11-12T04:59:35;11.00;;;5.25;;
22614;SDS011;11474;50.790;0.298;2022-11-12T05:02:01;10.15;;;4.50;;
22614;SDS011;11474;50.790;0.298;2022-11-12T05:04:27;12.63;;;5.72;;
22614;SDS011;11474;50.790;0.298;2022-11-12T05:06:57;11.77;;;6.25;;
22614;SDS011;11474;50.790;0.298;2022-11-12T05:09:25;14.00;;;6.75;;
22614;SDS011;11474;50.790;0.298;2022-11-12T05:11:51;14.15;;;6.78;;
22614;SDS011;11474;50.790;0.298;2022-11-12T05:14:19;17.42;;;7.53;;
22614;SDS011;11474;50.790;0.298;2022-11-12T05:16:45;15.52;;;8.00;;
22614;SDS011;11474;50.790;0.298;2022-11-12T05:19:11;15.75;;;7.40;;
22614;SDS011;11474;50.790;0.298;2022-11-12T05:21:37;12.40;;;7.18;;
22614;SDS011;11474;50.790;0.298;2022-11-12T05:24:22;11.38;;;6.18;;
22614;SDS011;11474;50.790;0.298;2022-11-12T05:26:48;12.37;;;6.20;;
22614;SDS011;11474;50.790;0.298;2022-11-12T05:29:15;13.02;;;6.82;;
22614;SDS011;11474;50.790;0.298;2022-11-12T05:31:41;14.18;;;6.53;;
22614;SDS011;11474;50.790;0.298;2022-11-12T05:34:07;11.55;;;6.18;;
22614;SDS011;11474;50.790;0.298;2022-11-12T05:36:33;13.77;;;6.63;;
22614;SDS011;11474;50.790;0.298;2022-11-12T05:38:59;14.00;;;6.93;;
22614;SDS011;11474;50.790;0.298;2022-11-12T05:41:25;12.00;;;6.28;;
22614;SDS011;11474;50.790;0.298;2022-11-12T05:43:51;14.17;;;6.60;;
22614;SDS011;11474;50.790;0.298;2022-11-12T05:46:17;11.88;;;6.10;;
22614;SDS011;11474;50.790;0.298;2022-11-12T05:48:44;11.05;;;6.25;;
22614;SDS011;11474;50.790;0.298;2022-11-12T05:51:10;13.32;;;7.25;;
22614;SDS011;11474;50.790;0.298;2022-11-12T05:53:38;10.93;;;6.75;;
22614;SDS011;11474;50.790;0.298;2022-11-12T05:56:04;9.75;;;5.90;;
22614;SDS011;11474;50.790;0.298;2022-11-12T05:58:31;10.77;;;6.57;;
22614;SDS011;11474;50.790;0.298;2022-11-12T06:00:58;12.53;;;6.03;;
22614;SDS011;11474;50.790;0.298;2022-11-12T06:03:24;12.32;;;6.68;;
22614;SDS011;11474;50.790;0.298;2022-11-12T06:05:51;10.35;;;6.28;;
22614;SDS011;11474;50.790;0.298;2022-11-12T06:08:17;11.43;;;6.63;;
22614;SDS011;11474;50.790;0.298;2022-11-12T06:10:47;11.85;;;6.53;;
22614;SDS011;11474;50.790;0.298;2022-11-12T06:13:13;13.10;;;6.13;;
22614;SDS011;11474;50.790;0.298;2022-11-12T06:15:39;15.13;;;6.88;;
22614;SDS011;11474;50.790;0.298;2022-11-12T06:18:05;10.10;;;6.20;;
22614;SDS011;11474;50.790;0.298;2022-11-12T06:20:32;12.07;;;6.53;;
22614;SDS011;11474;50.790;0.298;2022-11-12T06:22:58;10.25;;;6.03;;
22614;SDS011;11474;50.790;0.298;2022-11-12T06:25:24;11.88;;;6.80;;
22614;SDS011;11474;50.790;0.298;2022-11-12T06:27:50;11.50;;;7.32;;
22614;SDS011;11474;50.790;0.298;2022-11-12T06:30:16;11.50;;;6.80;;
22614;SDS011;11474;50.790;0.298;2022-11-12T06:32:46;10.65;;;6.88;;
22614;SDS011;11474;50.790;0.298;2022-11-12T06:35:12;11.75;;;7.10;;
22614;SDS011;11474;50.790;0.298;2022-11-12T06:37:38;14.10;;;7.18;;
22614;SDS011;11474;50.790;0.298;2022-11-12T06:40:04;17.77;;;8.63;;
22614;SDS011;11474;50.790;0.298;2022-11-12T06:42:31;14.05;;;8.10;;
22614;SDS011;11474;50.790;0.298;2022-11-12T06:44:57;12.40;;;5.45;;
22614;SDS011;11474;50.790;0.298;2022-11-12T06:47:23;18.40;;;7.55;;
22614;SDS011;11474;50.790;0.298;2022-11-12T06:49:49;13.88;;;7.75;;
22614;SDS011;11474;50.790;0.298;2022-11-12T06:52:15;10.50;;;6.78;;
22614;SDS011;11474;50.790;0.298;2022-11-12T06:54:41;9.70;;;5.78;;
22614;SDS011;11474;50.790;0.298;2022-11-12T06:57:07;11.07;;;6.60;;
22614;SDS011;11474;50.790;0.298;2022-11-12T06:59:33;10.05;;;6.53;;
22614;SDS011;11474;50.790;0.298;2022-11-12T07:01:59;10.25;;;6.60;;
22614;SDS011;11474;50.790;0.298;2022-11-12T07:04:25;9.52;;;5.90;;
22614;SDS011;11474;50.790;0.298;2022-11-12T07:06:51;9.90;;;5.57;;
22614;SDS011;11474;50.790;0.298;2022-11-12T07:09:17;8.75;;;5.45;;
22614;SDS011;11474;50.790;0.298;2022-11-12T07:11:43;9.73;;;5.55;;
22614;SDS011;11474;50.790;0.298;2022-11-12T07:14:09;9.20;;;5.82;;
22614;SDS011;11474;50.790;0.298;2022-11-12T07:16:35;12.63;;;6.97;;
22614;SDS011;11474;50.790;0.298;2022-11-12T07:19:02;15.47;;;9.33;;
22614;SDS011;11474;50.790;0.298;2022-11-12T07:21:28;18.50;;;11.73;;
22614;SDS011;11474;50.790;0.298;2022-11-12T07:23:54;19.10;;;12.02;;
22614;SDS011;11474;50.790;0.298;2022-11-12T07:26:21;22.85;;;13.10;;
22614;SDS011;11474;50.790;0.298;2022-11-12T07:28:48;22.55;;;12.95;;
22614;SDS011;11474;50.790;0.298;2022-11-12T07:31:15;20.35;;;12.30;;
22614;SDS011;11474;50.790;0.298;2022-11-12T07:33:41;20.30;;;13.07;;
22614;SDS011;11474;50.790;0.298;2022-11-12T07:36:15;20.38;;;12.63;;
22614;SDS011;11474;50.790;0.298;2022-11-12T07:38:41;22.05;;;12.73;;
22614;SDS011;11474;50.790;0.298;2022-11-12T07:41:18;22.40;;;12.85;;
22614;SDS011;11474;50.790;0.298;2022-11-12T07:43:45;28.40;;;13.48;;
22614;SDS011;11474;50.790;0.298;2022-11-12T07:48:37;22.97;;;13.23;;
22614;SDS011;11474;50.790;0.298;2022-11-12T07:51:10;23.17;;;13.38;;
22614;SDS011;11474;50.790;0.298;2022-11-12T07:53:37;19.17;;;12.50;;
22614;SDS011;11474;50.790;0.298;2022-11-12T07:56:03;20.10;;;12.73;;
22614;SDS011;11474;50.790;0.298;2022-11-12T07:58:30;24.75;;;12.05;;
22614;SDS011;11474;50.790;0.298;2022-11-12T08:00:56;18.53;;;11.40;;
22614;SDS011;11474;50.790;0.298;2022-11-12T08:03:23;20.38;;;11.70;;
22614;SDS011;11474;50.790;0.298;2022-11-12T08:05:49;22.45;;;12.82;;
22614;SDS011;11474;50.790;0.298;2022-11-12T08:08:15;21.77;;;12.52;;
22614;SDS011;11474;50.790;0.298;2022-11-12T08:10:41;22.83;;;11.88;;
22614;SDS011;11474;50.790;0.298;2022-11-12T08:13:07;19.07;;;11.50;;
22614;SDS011;11474;50.790;0.298;2022-11-12T08:15:33;24.70;;;11.50;;
22614;SDS011;11474;50.790;0.298;2022-11-12T08:17:59;22.52;;;11.35;;
22614;SDS011;11474;50.790;0.298;2022-11-12T08:20:25;18.77;;;11.25;;
22614;SDS011;11474;50.790;0.298;2022-11-12T08:22:51;18.73;;;11.25;;
22614;SDS011;11474;50.790;0.298;2022-11-12T08:25:17;19.20;;;10.70;;
22614;SDS011;11474;50.790;0.298;2022-11-12T08:27:43;17.65;;;10.15;;
22614;SDS011;11474;50.790;0.298;2022-11-12T08:30:10;16.25;;;10.82;;
22614;SDS011;11474;50.790;0.298;2022-11-12T08:32:36;18.33;;;10.15;;
22614;SDS011;11474;50.790;0.298;2022-11-12T08:35:05;18.60;;;10.43;;
22614;SDS011;11474;50.790;0.298;2022-11-12T08:37:31;15.90;;;9.98;;
22614;SDS011;11474;50.790;0.298;2022-11-12T08:39:57;18.47;;;10.33;;
22614;SDS011;11474;50.790;0.298;2022-11-12T08:42:23;19.00;;;10.20;;
22614;SDS011;11474;50.790;0.298;2022-11-12T08:44:49;17.75;;;9.73;;
22614;SDS011;11474;50.790;0.298;2022-11-12T08:47:15;16.25;;;9.25;;
22614;SDS011;11474;50.790;0.298;2022-11-12T08:49:41;16.02;;;9.07;;
22614;SDS011;11474;50.790;0.298;2022-11-12T08:52:07;17.27;;;9.38;;
22614;SDS011;11474;50.790;0.298;2022-11-12T08:54:33;18.50;;;9.48;;
22614;SDS011;11474;50.790;0.298;2022-11-12T08:56:59;16.27;;;8.55;;
22614;SDS011;11474;50.790;0.298;2022-11-12T08:59:25;20.52;;;10.07;;
22614;SDS011;11474;50.790;0.298;2022-11-12T09:01:51;15.90;;;9.27;;
22614;SDS011;11474;50.790;0.298;2022-11-12T09:04:17;23.70;;;10.60;;
22614;SDS011;11474;50.790;0.298;2022-11-12T09:06:44;18.98;;;8.75;;
22614;SDS011;11474;50.790;0.298;2022-11-12T09:09:09;16.52;;;8.88;;
22614;SDS011;11474;50.790;0.298;2022-11-12T09:11:36;14.88;;;8.55;;
22614;SDS011;11474;50.790;0.298;2022-11-12T09:14:02;15.45;;;8.60;;
22614;SDS011;11474;50.790;0.298;2022-11-12T09:16:28;16.13;;;8.95;;
22614;SDS011;11474;50.790;0.298;2022-11-12T09:18:54;14.95;;;7.63;;
22614;SDS011;11474;50.790;0.298;2022-11-12T09:21:20;17.70;;;8.75;;
22614;SDS011;11474;50.790;0.298;2022-11-12T09:23:48;13.50;;;7.65;;
22614;SDS011;11474;50.790;0.298;2022-11-12T09:26:14;14.80;;;7.78;;
22614;SDS011;11474;50.790;0.298;2022-11-12T09:28:40;15.20;;;8.00;;
22614;SDS011;11474;50.790;0.298;2022-11-12T09:31:07;13.55;;;7.20;;
22614;SDS011;11474;50.790;0.298;2022-11-12T09:33:33;14.15;;;7.90;;
22614;SDS011;11474;50.790;0.298;2022-11-12T09:35:59;13.40;;;7.40;;
22614;SDS011;11474;50.790;0.298;2022-11-12T09:38:25;13.35;;;7.38;;
22614;SDS011;11474;50.790;0.298;2022-11-12T09:43:33;15.60;;;8.05;;
22614;SDS011;11474;50.790;0.298;2022-11-12T09:46:03;17.13;;;7.65;;
22614;SDS011;11474;50.790;0.298;2022-11-12T09:48:34;16.23;;;8.40;;
22614;SDS011;11474;50.790;0.298;2022-11-12T09:51:22;15.65;;;7.90;;
22614;SDS011;11474;50.790;0.298;2022-11-12T09:53:56;12.98;;;6.65;;
22614;SDS011;11474;50.790;0.298;2022-11-12T09:56:23;14.00;;;6.87;;
22614;SDS011;11474;50.790;0.298;2022-11-12T09:58:50;12.23;;;6.38;;
22614;SDS011;11474;50.790;0.298;2022-11-12T10:06:48;14.20;;;7.18;;
22614;SDS011;11474;50.790;0.298;2022-11-12T10:09:27;14.40;;;6.60;;
22614;SDS011;11474;50.790;0.298;2022-11-12T10:17:22;14.80;;;7.50;;
22614;SDS011;11474;50.790;0.298;2022-11-12T10:25:18;13.02;;;7.80;;
22614;SDS011;11474;50.790;0.298;2022-11-12T10:27:45;13.85;;;7.50;;
22614;SDS011;11474;50.790;0.298;2022-11-12T10:30:21;15.15;;;8.00;;
22614;SDS011;11474;50.790;0.298;2022-11-12T10:32:48;13.73;;;6.88;;
22614;SDS011;11474;50.790;0.298;2022-11-12T10:35:15;13.57;;;6.38;;
22614;SDS011;11474;50.790;0.298;2022-11-12T10:40:44;11.45;;;6.20;;
22614;SDS011;11474;50.790;0.298;2022-11-12T10:43:04;11.52;;;6.10;;
22614;SDS011;11474;50.790;0.298;2022-11-12T10:45:31;11.60;;;5.70;;
22614;SDS011;11474;50.790;0.298;2022-11-12T10:47:57;13.63;;;6.28;;
22614;SDS011;11474;50.790;0.298;2022-11-12T10:52:54;11.80;;;5.60;;
22614;SDS011;11474;50.790;0.298;2022-11-12T10:55:21;10.83;;;5.70;;
22614;SDS011;11474;50.790;0.298;2022-11-12T10:58:02;11.77;;;5.73;;
22614;SDS011;11474;50.790;0.298;2022-11-12T11:00:28;11.00;;;5.10;;
22614;SDS011;11474;50.790;0.298;2022-11-12T11:02:54;10.68;;;5.35;;
22614;SDS011;11474;50.790;0.298;2022-11-12T11:07:52;10.60;;;5.93;;
22614;SDS011;11474;50.790;0.298;2022-11-12T11:10:23;12.65;;;6.00;;
22614;SDS011;11474;50.790;0.298;2022-11-12T11:13:05;11.13;;;5.93;;
22614;SDS011;11474;50.790;0.298;2022-11-12T11:15:33;11.85;;;5.90;;
22614;SDS011;11474;50.790;0.298;2022-11-12T11:17:59;10.32;;;6.00;;
22614;SDS011;11474;50.790;0.298;2022-11-12T11:20:28;10.55;;;5.25;;
22614;SDS011;11474;50.790;0.298;2022-11-12T11:22:56;9.07;;;5.40;;
22614;SDS011;11474;50.790;0.298;2022-11-12T11:25:25;11.57;;;5.65;;
22614;SDS011;11474;50.790;0.298;2022-11-12T11:30:37;9.63;;;5.28;;
22614;SDS011;11474;50.790;0.298;2022-11-12T11:33:28;12.73;;;5.63;;
22614;SDS011;11474;50.790;0.298;2022-11-12T11:51:27;12.73;;;5.65;;
22614;SDS011;11474;50.790;0.298;2022-11-12T11:56:35;14.43;;;5.93;;
22614;SDS011;11474;50.790;0.298;2022-11-12T12:07:14;10.57;;;4.70;;
22614;SDS011;11474;50.790;0.298;2022-11-12T12:09:44;11.93;;;4.80;;
22614;SDS011;11474;50.790;0.298;2022-11-12T12:12:17;10.82;;;4.97;;
22614;SDS011;11474;50.790;0.298;2022-11-12T12:15:29;11.23;;;4.82;;
22614;SDS011;11474;50.790;0.298;2022-11-12T12:22:37;11.23;;;5.05;;
22614;SDS011;11474;50.790;0.298;2022-11-12T12:25:16;11.07;;;5.03;;
22614;SDS011;11474;50.790;0.298;2022-11-12T12:28:05;13.07;;;5.40;;
22614;SDS011;11474;50.790;0.298;2022-11-12T12:30:29;11.60;;;5.30;;
22614;SDS011;11474;50.790;0.298;2022-11-12T12:35:46;11.18;;;4.95;;
22614;SDS011;11474;50.790;0.298;2022-11-12T12:43:51;11.77;;;5.32;;
22614;SDS011;11474;50.790;0.298;2022-11-12T12:46:20;10.40;;;5.28;;
22614;SDS011;11474;50.790;0.298;2022-11-12T12:48:47;12.07;;;4.88;;
22614;SDS011;11474;50.790;0.298;2022-11-12T12:51:16;11.35;;;4.97;;
22614;SDS011;11474;50.790;0.298;2022-11-12T12:53:42;11.50;;;5.50;;
22614;SDS011;11474;50.790;0.298;2022-11-12T12:58:44;12.20;;;6.00;;
22614;SDS011;11474;50.790;0.298;2022-11-12T13:03:50;11.50;;;5.70;;
22614;SDS011;11474;50.790;0.298;2022-11-12T13:09:32;12.73;;;5.30;;
22614;SDS011;11474;50.790;0.298;2022-11-12T13:17:02;13.32;;;5.43;;
22614;SDS011;11474;50.790;0.298;2022-11-12T13:19:38;15.57;;;4.90;;
22614;SDS011;11474;50.790;0.298;2022-11-12T13:42:50;13.82;;;6.28;;
22614;SDS011;11474;50.790;0.298;2022-11-12T13:45:17;11.50;;;6.03;;
22614;SDS011;11474;50.790;0.298;2022-11-12T13:47:43;14.48;;;6.13;;
22614;SDS011;11474;50.790;0.298;2022-11-12T13:50:17;16.45;;;6.38;;
22614;SDS011;11474;50.790;0.298;2022-11-12T13:52:44;11.38;;;6.43;;
22614;SDS011;11474;50.790;0.298;2022-11-12T13:55:14;16.48;;;6.43;;
22614;SDS011;11474;50.790;0.298;2022-11-12T13:57:41;12.38;;;6.25;;
22614;SDS011;11474;50.790;0.298;2022-11-12T14:02:53;13.30;;;6.30;;
22614;SDS011;11474;50.790;0.298;2022-11-12T14:05:21;10.73;;;6.15;;
22614;SDS011;11474;50.790;0.298;2022-11-12T14:15:34;14.05;;;6.18;;
22614;SDS011;11474;50.790;0.298;2022-11-12T14:20:38;16.60;;;6.95;;
22614;SDS011;11474;50.790;0.298;2022-11-12T14:25:33;15.63;;;7.57;;
22614;SDS011;11474;50.790;0.298;2022-11-12T14:27:59;16.75;;;7.05;;
22614;SDS011;11474;50.790;0.298;2022-11-12T14:30:26;18.30;;;6.72;;
22614;SDS011;11474;50.790;0.298;2022-11-12T14:33:08;14.70;;;7.33;;
22614;SDS011;11474;50.790;0.298;2022-11-12T14:38:20;13.48;;;6.80;;
22614;SDS011;11474;50.790;0.298;2022-11-12T14:40:49;13.68;;;6.78;;
22614;SDS011;11474;50.790;0.298;2022-11-12T14:46:01;16.08;;;6.85;;
22614;SDS011;11474;50.790;0.298;2022-11-12T14:48:29;10.75;;;6.43;;
22614;SDS011;11474;50.790;0.298;2022-11-12T14:50:59;14.00;;;6.97;;
22614;SDS011;11474;50.790;0.298;2022-11-12T14:53:29;12.38;;;6.70;;
22614;SDS011;11474;50.790;0.298;2022-11-12T14:55:56;13.05;;;6.70;;
22614;SDS011;11474;50.790;0.298;2022-11-12T14:58:22;16.25;;;7.60;;
22614;SDS011;11474;50.790;0.298;2022-11-12T15:00:51;13.93;;;6.87;;
22614;SDS011;11474;50.790;0.298;2022-11-12T15:03:24;14.45;;;7.07;;
22614;SDS011;11474;50.790;0.298;2022-11-12T15:05:55;14.52;;;7.28;;
22614;SDS011;11474;50.790;0.298;2022-11-12T15:08:32;15.27;;;7.40;;
22614;SDS011;11474;50.790;0.298;2022-11-12T15:11:15;12.40;;;6.95;;
22614;SDS011;11474;50.790;0.298;2022-11-12T15:13:42;13.13;;;7.35;;
22614;SDS011;11474;50.790;0.298;2022-11-12T15:16:09;14.60;;;7.45;;
22614;SDS011;11474;50.790;0.298;2022-11-12T15:18:36;17.50;;;7.82;;
22614;SDS011;11474;50.790;0.298;2022-11-12T15:24:04;14.38;;;7.90;;
22614;SDS011;11474;50.790;0.298;2022-11-12T15:26:33;15.63;;;8.00;;
22614;SDS011;11474;50.790;0.298;2022-11-12T15:31:49;14.57;;;8.02;;
22614;SDS011;11474;50.790;0.298;2022-11-12T15:36:54;16.30;;;7.68;;
22614;SDS011;11474;50.790;0.298;2022-11-12T15:39:20;13.35;;;7.50;;
22614;SDS011;11474;50.790;0.298;2022-11-12T15:41:47;14.40;;;7.60;;
22614;SDS011;11474;50.790;0.298;2022-11-12T15:44:13;15.80;;;7.47;;
22614;SDS011;11474;50.790;0.298;2022-11-12T15:46:39;15.63;;;7.30;;
22614;SDS011;11474;50.790;0.298;2022-11-12T15:49:11;12.23;;;6.80;;
22614;SDS011;11474;50.790;0.298;2022-11-12T15:51:37;13.95;;;7.70;;
22614;SDS011;11474;50.790;0.298;2022-11-12T15:54:04;13.15;;;6.97;;
22614;SDS011;11474;50.790;0.298;2022-11-12T15:56:30;14.85;;;7.07;;
22614;SDS011;11474;50.790;0.298;2022-11-12T15:58:56;15.55;;;7.03;;
22614;SDS011;11474;50.790;0.298;2022-11-12T16:01:22;15.60;;;6.72;;
22614;SDS011;11474;50.790;0.298;2022-11-12T16:03:48;14.20;;;6.50;;
22614;SDS011;11474;50.790;0.298;2022-11-12T16:06:14;16.57;;;6.87;;
22614;SDS011;11474;50.790;0.298;2022-11-12T16:08:40;16.42;;;6.60;;
22614;SDS011;11474;50.790;0.298;2022-11-12T16:11:07;12.38;;;6.60;;
22614;SDS011;11474;50.790;0.298;2022-11-12T16:13:54;11.90;;;6.38;;
22614;SDS011;11474;50.790;0.298;2022-11-12T16:16:20;14.60;;;7.10;;
22614;SDS011;11474;50.790;0.298;2022-11-12T16:18:46;15.20;;;6.80;;
22614;SDS011;11474;50.790;0.298;2022-11-12T16:21:12;13.88;;;7.15;;
22614;SDS011;11474;50.790;0.298;2022-11-12T16:23:38;18.00;;;7.80;;
22614;SDS011;11474;50.790;0.298;2022-11-12T16:26:05;14.05;;;7.65;;
22614;SDS011;11474;50.790;0.298;2022-11-12T16:28:32;18.77;;;8.75;;
22614;SDS011;11474;50.790;0.298;2022-11-12T16:30:59;15.52;;;9.43;;
22614;SDS011;11474;50.790;0.298;2022-11-12T16:33:25;16.35;;;9.30;;
22614;SDS011;11474;50.790;0.298;2022-11-12T16:35:51;16.00;;;9.40;;
22614;SDS011;11474;50.790;0.298;2022-11-12T16:38:17;19.83;;;9.80;;
22614;SDS011;11474;50.790;0.298;2022-11-12T16:40:44;18.10;;;10.70;;
22614;SDS011;11474;50.790;0.298;2022-11-12T16:43:10;16.60;;;10.60;;
22614;SDS011;11474;50.790;0.298;2022-11-12T16:45:39;20.33;;;11.40;;
22614;SDS011;11474;50.790;0.298;2022-11-12T16:48:10;17.20;;;10.23;;
22614;SDS011;11474;50.790;0.298;2022-11-12T16:50:37;16.80;;;9.85;;
22614;SDS011;11474;50.790;0.298;2022-11-12T16:53:03;19.08;;;10.02;;
22614;SDS011;11474;50.790;0.298;2022-11-12T16:55:29;17.83;;;9.40;;